Chem Amsterdam — V7BY2 — position and weather

sailwx.info

Track history (hours):
 
Tides and Currents Weather Stations Pressure Air Temp Water Temp Dewpoint Dewpoint Depression Visibility Wind Speed Wind Dir Waves Ship Positions

Chem Amsterdam

Last reported at 2017-Dec-03 23:14 UTC. Time now 2017-Dec-14 00:43 UTC.
Position N 29°44' W 095°16'.
Warning: this ship's position is 10 days out of date.

Length 142 m; draft 8.2 m.

Type: Ship. MMSI: 538005215.

Date/timePositionNaut miles runAvg speedWind from/ knotsBaromVisibWave heightAir tempDewpointWater temp
2017-Dec-03 23:14N 29°44' W 095°16'0 0.1
2017-Dec-03 23:00N 29°44' W 095°16'0 0.8
2017-Dec-03 22:30N 29°44' W 095°15'3 5.0
2017-Dec-03 22:00N 29°44' W 095°12'3 5.3
2017-Dec-03 21:30N 29°45' W 095°10'3 6.2
2017-Dec-03 20:59N 29°45' W 095°06'3 5.7
2017-Dec-03 20:30N 29°44' W 095°03'4 7.7
2017-Dec-03 20:00N 29°42' W 094°59'611.2
2017-Dec-03 19:30N 29°36' W 094°57'611.8
2017-Dec-03 19:00N 29°31' W 094°53'611.4
2017-Dec-03 18:30N 29°26' W 094°50'20 1.4
2017-Dec-03 04:19N 29°17' W 094°30'2 6.9
2017-Dec-03 04:00N 29°14' W 094°30'42 1.6
2017-Dec-02 00:55N 28°52' W 095°11'0 0.0
2017-Dec-01 20:51N 28°52' W 095°11'0 0.0
2017-Dec-01 19:18N 28°52' W 095°11'0 0.0
2017-Dec-01 19:00N 28°52' W 095°11'0 0.0
2017-Dec-01 18:30N 28°52' W 095°11'0 0.0
2017-Dec-01 18:00N 28°52' W 095°11'0 0.0
2017-Dec-01 17:21N 28°52' W 095°11'0 0.0
2017-Dec-01 17:00N 28°52' W 095°11'0 0.0
2017-Dec-01 13:24N 28°52' W 095°11'8 0.8
2017-Dec-01 03:51N 28°45' W 095°06'615.1
2017-Dec-01 03:29N 28°48' W 095°01'915.3
2017-Dec-01 02:56N 28°53' W 094°53'715.4
2017-Dec-01 02:30N 28°56' W 094°47'27 2.3
2017-Nov-30 14:25N 29°21' W 094°33'0 0.0
2017-Nov-30 13:49N 29°21' W 094°33'0 0.0
2017-Nov-30 13:22N 29°21' W 094°33'0 0.0
2017-Nov-30 12:40N 29°21' W 094°33'0 0.0
2017-Nov-30 12:13N 29°21' W 094°33'0 0.0
2017-Nov-30 11:43N 29°21' W 094°33'0 0.0
2017-Nov-30 11:16N 29°21' W 094°33'0 0.0
2017-Nov-30 10:07N 29°21' W 094°33'0 0.0
2017-Nov-30 09:58N 29°21' W 094°33'0 0.0
2017-Nov-30 09:28N 29°21' W 094°33'0 0.0
2017-Nov-30 08:58N 29°21' W 094°33'0 0.0
2017-Nov-30 08:28N 29°21' W 094°33'  
Track history (hours):
 
Tides and Currents Weather Stations Pressure Air Temp Water Temp Dewpoint Dewpoint Depression Visibility Wind Speed Wind Dir Waves Ship Positions

Chem Amsterdam

Last reported at 2017-Dec-03 23:14 UTC. Time now 2017-Dec-14 00:43 UTC.
Position N 29°44' W 095°16'.
Warning: this ship's position is 10 days out of date.

Length 142 m; draft 8.2 m.

Type: Ship. MMSI: 538005215.

Date/timePositionNaut miles runAvg speedWind from/ knotsBaromVisibWave heightAir tempDewpointWater temp
2017-Dec-03 23:14N 29°44' W 095°16'0 0.1
2017-Dec-03 23:00N 29°44' W 095°16'0 0.8
2017-Dec-03 22:30N 29°44' W 095°15'3 5.0
2017-Dec-03 22:00N 29°44' W 095°12'3 5.3
2017-Dec-03 21:30N 29°45' W 095°10'3 6.2
2017-Dec-03 20:59N 29°45' W 095°06'3 5.7
2017-Dec-03 20:30N 29°44' W 095°03'4 7.7
2017-Dec-03 20:00N 29°42' W 094°59'611.2
2017-Dec-03 19:30N 29°36' W 094°57'611.8
2017-Dec-03 19:00N 29°31' W 094°53'611.4
2017-Dec-03 18:30N 29°26' W 094°50'20 1.4
2017-Dec-03 04:19N 29°17' W 094°30'2 6.9
2017-Dec-03 04:00N 29°14' W 094°30'42 1.6
2017-Dec-02 00:55N 28°52' W 095°11'0 0.0
2017-Dec-01 20:51N 28°52' W 095°11'0 0.0
2017-Dec-01 19:18N 28°52' W 095°11'0 0.0
2017-Dec-01 19:00N 28°52' W 095°11'0 0.0
2017-Dec-01 18:30N 28°52' W 095°11'0 0.0
2017-Dec-01 18:00N 28°52' W 095°11'0 0.0
2017-Dec-01 17:21N 28°52' W 095°11'0 0.0
2017-Dec-01 17:00N 28°52' W 095°11'0 0.0
2017-Dec-01 13:24N 28°52' W 095°11'8 0.8
2017-Dec-01 03:51N 28°45' W 095°06'615.1
2017-Dec-01 03:29N 28°48' W 095°01'915.3
2017-Dec-01 02:56N 28°53' W 094°53'715.4
2017-Dec-01 02:30N 28°56' W 094°47'27 2.3
2017-Nov-30 14:25N 29°21' W 094°33'0 0.0
2017-Nov-30 13:49N 29°21' W 094°33'0 0.0
2017-Nov-30 13:22N 29°21' W 094°33'0 0.0
2017-Nov-30 12:40N 29°21' W 094°33'0 0.0
2017-Nov-30 12:13N 29°21' W 094°33'0 0.0
2017-Nov-30 11:43N 29°21' W 094°33'0 0.0
2017-Nov-30 11:16N 29°21' W 094°33'0 0.0
2017-Nov-30 10:07N 29°21' W 094°33'0 0.0
2017-Nov-30 09:58N 29°21' W 094°33'0 0.0
2017-Nov-30 09:28N 29°21' W 094°33'0 0.0
2017-Nov-30 08:58N 29°21' W 094°33'0 0.0
2017-Nov-30 08:28N 29°21' W 094°33'  

Dump ship's entire track history